createdAt,value
2023-03-14T00:00:00.659Z,10.04
2023-03-14T00:01:07.693Z,10.04
2023-03-14T00:02:00.676Z,10.04
2023-03-14T00:03:00.698Z,10.10
2023-03-14T00:04:00.628Z,10.10
2023-03-14T00:05:00.793Z,10.10
2023-03-14T00:06:02.794Z,10.10
2023-03-14T00:07:00.721Z,10.10
2023-03-14T00:08:00.605Z,9.94
2023-03-14T00:09:00.625Z,9.94
2023-03-14T00:10:01.760Z,9.94
2023-03-14T00:11:10.558Z,9.94
2023-03-14T00:12:00.639Z,9.94
2023-03-14T00:13:00.623Z,9.92
2023-03-14T00:14:00.803Z,9.92
2023-03-14T00:15:00.811Z,9.92
2023-03-14T00:16:03.346Z,9.92
2023-03-14T00:17:00.644Z,9.92
2023-03-14T00:18:01.638Z,9.83
2023-03-14T00:19:00.878Z,9.83
2023-03-14T00:20:00.746Z,9.83
2023-03-14T00:21:01.482Z,9.83
2023-03-14T00:22:00.628Z,9.83
2023-03-14T00:23:00.630Z,9.66
2023-03-14T00:24:00.626Z,9.66
2023-03-14T00:25:00.933Z,9.66
2023-03-14T00:26:01.454Z,9.66
2023-03-14T00:27:00.624Z,9.66
2023-03-14T00:28:00.681Z,9.42
2023-03-14T00:29:00.669Z,9.42
2023-03-14T00:30:01.257Z,9.42
2023-03-14T00:31:04.989Z,9.42
2023-03-14T00:32:00.683Z,9.42
2023-03-14T00:33:00.657Z,9.37
2023-03-14T00:34:00.636Z,9.37
2023-03-14T00:35:00.647Z,9.37
2023-03-14T00:36:01.873Z,9.37
2023-03-14T00:37:00.653Z,9.37
2023-03-14T00:38:00.619Z,9.38
2023-03-14T00:39:00.631Z,9.38
2023-03-14T00:40:00.662Z,9.38
2023-03-14T00:41:04.660Z,9.38
2023-03-14T00:42:00.651Z,9.38
2023-03-14T00:43:00.616Z,9.34
2023-03-14T00:44:00.640Z,9.34
2023-03-14T00:45:00.626Z,9.34
2023-03-14T00:46:00.737Z,9.34
2023-03-14T00:47:00.730Z,9.34
2023-03-14T00:48:00.652Z,9.38
2023-03-14T00:49:00.616Z,9.38
2023-03-14T00:50:00.661Z,9.38
2023-03-14T00:51:01.309Z,9.38
2023-03-14T00:52:00.757Z,9.38
2023-03-14T00:53:00.611Z,9.31
2023-03-14T00:54:00.632Z,9.31
2023-03-14T00:55:00.606Z,9.31
2023-03-14T00:56:03.130Z,9.31
2023-03-14T00:57:00.721Z,9.31
2023-03-14T00:58:01.906Z,9.20
2023-03-14T00:59:00.661Z,9.20
2023-03-14T01:00:00.662Z,9.20
2023-03-14T01:01:05.481Z,9.20
2023-03-14T01:02:00.661Z,9.20
2023-03-14T01:03:00.973Z,9.10
2023-03-14T01:04:00.640Z,9.10
2023-03-14T01:05:00.674Z,9.10
2023-03-14T01:06:09.059Z,9.10
2023-03-14T01:07:00.623Z,9.10
2023-03-14T01:08:00.751Z,8.92
2023-03-14T01:09:00.780Z,8.92
2023-03-14T01:10:00.654Z,8.92
2023-03-14T01:11:04.590Z,8.92
2023-03-14T01:12:00.632Z,8.92
2023-03-14T01:13:00.656Z,8.87
2023-03-14T01:14:01.181Z,8.87
2023-03-14T01:15:00.622Z,8.87
2023-03-14T01:16:01.608Z,8.87
2023-03-14T01:17:00.648Z,8.87
2023-03-14T01:18:00.670Z,8.88
2023-03-14T01:19:01.116Z,8.88
2023-03-14T01:20:00.773Z,8.88
2023-03-14T01:21:02.660Z,8.88
2023-03-14T01:22:00.638Z,8.88
2023-03-14T01:23:00.657Z,8.92
2023-03-14T01:24:01.829Z,8.92
2023-03-14T01:25:00.719Z,8.92
2023-03-14T01:26:00.644Z,8.92
2023-03-14T01:27:00.629Z,8.92
2023-03-14T01:28:00.621Z,8.46
2023-03-14T01:29:01.102Z,8.46
2023-03-14T01:30:00.809Z,8.46
2023-03-14T01:31:05.058Z,8.46
2023-03-14T01:32:00.676Z,8.46
2023-03-14T01:33:00.635Z,8.65
2023-03-14T01:34:00.675Z,8.65
2023-03-14T01:35:00.784Z,8.65
2023-03-14T01:36:00.678Z,8.65
2023-03-14T01:37:00.628Z,8.65
2023-03-14T01:38:00.643Z,8.59
2023-03-14T01:39:00.676Z,8.59
2023-03-14T01:40:00.677Z,8.59
2023-03-14T01:41:00.749Z,8.59
2023-03-14T01:42:01.005Z,8.59
2023-03-14T01:43:10.543Z,8.50
2023-03-14T01:44:00.705Z,8.50
2023-03-14T01:45:01.156Z,8.50
2023-03-14T01:46:08.225Z,8.50
2023-03-14T01:47:00.621Z,8.50
2023-03-14T01:48:00.646Z,8.30
2023-03-14T01:49:03.891Z,8.30
2023-03-14T01:50:03.910Z,8.30
2023-03-14T01:51:01.328Z,8.30
2023-03-14T01:52:05.333Z,8.27
2023-03-14T01:53:00.664Z,8.27
2023-03-14T01:54:05.227Z,8.27
2023-03-14T01:55:03.920Z,8.27
2023-03-14T01:56:00.738Z,8.27
2023-03-14T01:57:01.632Z,8.27
2023-03-14T01:58:03.049Z,8.11
2023-03-14T01:59:02.604Z,8.11
2023-03-14T02:00:00.664Z,8.11
2023-03-14T02:01:01.493Z,8.11
2023-03-14T02:02:01.056Z,8.11
2023-03-14T02:03:05.506Z,8.03
2023-03-14T02:04:02.611Z,8.03
2023-03-14T02:05:02.381Z,8.03
2023-03-14T02:06:04.228Z,8.03
2023-03-14T02:07:06.676Z,7.89
2023-03-14T02:08:02.021Z,7.89
2023-03-14T02:09:01.678Z,7.89
2023-03-14T02:10:01.436Z,7.89
2023-03-14T02:11:00.646Z,7.89
2023-03-14T02:12:00.648Z,7.89
2023-03-14T02:13:02.389Z,7.64
2023-03-14T02:14:01.533Z,7.64
2023-03-14T02:15:00.628Z,7.64
2023-03-14T02:16:00.781Z,7.64
2023-03-14T02:17:02.466Z,7.64
2023-03-14T02:18:01.963Z,7.81
2023-03-14T02:19:00.814Z,7.81
2023-03-14T02:20:10.539Z,7.81
2023-03-14T02:21:05.626Z,7.81
2023-03-14T02:22:05.138Z,7.81
2023-03-14T02:23:00.799Z,7.43
2023-03-14T02:24:10.555Z,7.43
2023-03-14T02:25:10.551Z,7.43
2023-03-14T02:26:03.330Z,7.43
2023-03-14T02:27:10.535Z,7.39
2023-03-14T02:28:00.887Z,7.39
2023-03-14T02:29:00.624Z,7.39
2023-03-14T02:30:03.423Z,7.39
2023-03-14T02:31:00.904Z,7.39
2023-03-14T02:32:00.752Z,7.39
2023-03-14T02:33:03.993Z,7.50
2023-03-14T02:34:01.300Z,7.50
2023-03-14T02:35:03.171Z,7.50
2023-03-14T02:36:02.248Z,7.50
2023-03-14T02:37:00.891Z,7.50
2023-03-14T02:38:06.011Z,7.48
2023-03-14T02:39:08.125Z,7.48
2023-03-14T02:40:00.858Z,7.48
2023-03-14T02:41:00.660Z,7.48
2023-03-14T02:42:00.646Z,7.48
2023-03-14T02:43:00.620Z,7.24
2023-03-14T02:44:00.617Z,7.24
2023-03-14T02:45:08.008Z,7.24
2023-03-14T02:46:01.490Z,7.24
2023-03-14T02:47:00.697Z,7.24
2023-03-14T02:48:04.130Z,7.24
2023-03-14T02:49:02.433Z,7.24
2023-03-14T02:50:02.830Z,7.24
2023-03-14T02:51:00.962Z,7.24
2023-03-14T02:52:00.620Z,7.24
2023-03-14T02:53:00.676Z,7.00
2023-03-14T02:54:00.620Z,7.00
2023-03-14T02:55:00.722Z,7.00
2023-03-14T02:56:00.884Z,7.00
2023-03-14T02:57:00.612Z,7.00
2023-03-14T02:58:00.711Z,7.00
2023-03-14T02:59:04.236Z,7.00
2023-03-14T03:00:01.299Z,7.00
2023-03-14T03:01:00.706Z,7.00
2023-03-14T03:02:00.626Z,7.00
2023-03-14T03:03:00.800Z,6.92
2023-03-14T03:04:00.658Z,6.92
2023-03-14T03:05:00.615Z,6.92
2023-03-14T03:06:00.707Z,6.92
2023-03-14T03:07:00.633Z,6.92
2023-03-14T03:08:00.678Z,6.78
2023-03-14T03:09:00.799Z,6.78
2023-03-14T03:10:00.712Z,6.78
2023-03-14T03:11:00.679Z,6.78
2023-03-14T03:12:00.628Z,6.78
2023-03-14T03:13:00.735Z,6.84
2023-03-14T03:14:00.625Z,6.84
2023-03-14T03:15:00.619Z,6.84
2023-03-14T03:16:00.820Z,6.84
2023-03-14T03:17:00.708Z,6.84
2023-03-14T03:18:00.613Z,6.81
2023-03-14T03:19:00.668Z,6.81
2023-03-14T03:20:00.668Z,6.81
2023-03-14T03:21:02.214Z,6.81
2023-03-14T03:22:00.649Z,6.81
2023-03-14T03:23:00.681Z,6.79
2023-03-14T03:24:00.776Z,6.79
2023-03-14T03:25:00.652Z,6.79
2023-03-14T03:26:00.791Z,6.79
2023-03-14T03:27:00.635Z,6.79
2023-03-14T03:28:00.642Z,6.77
2023-03-14T03:29:00.619Z,6.77
2023-03-14T03:30:01.286Z,6.77
2023-03-14T03:31:06.359Z,6.77
2023-03-14T03:32:00.689Z,6.77
2023-03-14T03:33:00.718Z,6.69
2023-03-14T03:34:00.633Z,6.69
2023-03-14T03:35:01.774Z,6.69
2023-03-14T03:36:00.723Z,6.69
2023-03-14T03:37:00.681Z,6.69
2023-03-14T03:38:00.833Z,6.72
2023-03-14T03:39:00.636Z,6.72
2023-03-14T03:40:00.776Z,6.72
2023-03-14T03:41:07.935Z,6.72
2023-03-14T03:42:00.640Z,6.72
2023-03-14T03:43:00.648Z,6.70
2023-03-14T03:44:00.620Z,6.70
2023-03-14T03:45:01.034Z,6.70
2023-03-14T03:46:04.223Z,6.70
2023-03-14T03:47:00.695Z,6.70
2023-03-14T03:48:00.638Z,6.68
2023-03-14T03:49:00.698Z,6.68
2023-03-14T03:50:00.715Z,6.68
2023-03-14T03:51:00.751Z,6.68
2023-03-14T03:52:00.722Z,6.68
2023-03-14T03:53:00.649Z,6.52
2023-03-14T03:54:00.689Z,6.52
2023-03-14T03:55:00.637Z,6.52
2023-03-14T03:56:00.634Z,6.52
2023-03-14T03:57:00.653Z,6.52
2023-03-14T03:58:00.723Z,6.53
2023-03-14T03:59:00.648Z,6.53
2023-03-14T04:00:00.700Z,6.53
2023-03-14T04:01:00.638Z,6.53
2023-03-14T04:02:00.636Z,6.53
2023-03-14T04:03:00.636Z,6.45
2023-03-14T04:04:00.744Z,6.45
2023-03-14T04:05:00.642Z,6.45
2023-03-14T04:06:02.303Z,6.45
2023-03-14T04:07:00.649Z,6.45
2023-03-14T04:08:01.211Z,6.45
2023-03-14T04:09:00.705Z,6.45
2023-03-14T04:10:00.671Z,6.45
2023-03-14T04:11:01.196Z,6.45
2023-03-14T04:12:00.661Z,6.45
2023-03-14T04:13:00.633Z,6.35
2023-03-14T04:14:00.715Z,6.35
2023-03-14T04:15:00.754Z,6.35
2023-03-14T04:16:00.683Z,6.35
2023-03-14T04:17:00.657Z,6.35
2023-03-14T04:18:00.634Z,6.17
2023-03-14T04:19:01.234Z,6.17
2023-03-14T04:20:00.773Z,6.17
2023-03-14T04:21:00.655Z,6.17
2023-03-14T04:22:00.687Z,6.17
2023-03-14T04:23:00.652Z,6.33
2023-03-14T04:24:00.669Z,6.33
2023-03-14T04:25:00.682Z,6.33
2023-03-14T04:26:00.753Z,6.33
2023-03-14T04:27:00.636Z,6.33
2023-03-14T04:28:00.923Z,6.32
2023-03-14T04:29:00.645Z,6.32
2023-03-14T04:30:01.660Z,6.32
2023-03-14T04:31:06.176Z,6.32
2023-03-14T04:32:00.642Z,6.32
2023-03-14T04:33:00.709Z,6.34
2023-03-14T04:34:00.635Z,6.34
2023-03-14T04:35:00.641Z,6.34
2023-03-14T04:36:00.652Z,6.34
2023-03-14T04:37:00.684Z,6.34
2023-03-14T04:38:00.800Z,6.19
2023-03-14T04:39:00.618Z,6.19
2023-03-14T04:40:00.665Z,6.19
2023-03-14T04:41:01.022Z,6.19
2023-03-14T04:42:00.661Z,6.19
2023-03-14T04:43:00.678Z,6.17
2023-03-14T04:44:00.621Z,6.17
2023-03-14T04:45:00.702Z,6.17
2023-03-14T04:46:00.778Z,6.17
2023-03-14T04:47:00.709Z,6.17
2023-03-14T04:48:00.649Z,6.10
2023-03-14T04:49:00.631Z,6.10
2023-03-14T04:50:00.932Z,6.10
2023-03-14T04:51:00.630Z,6.10
2023-03-14T04:52:00.649Z,6.10
2023-03-14T04:53:00.660Z,6.17
2023-03-14T04:54:00.630Z,6.17
2023-03-14T04:55:00.655Z,6.17
2023-03-14T04:56:01.218Z,6.17
2023-03-14T04:57:00.631Z,6.17
2023-03-14T04:58:00.619Z,5.97
2023-03-14T04:59:00.626Z,5.97
2023-03-14T05:00:00.703Z,5.97
2023-03-14T05:01:02.535Z,5.97
2023-03-14T05:02:00.763Z,5.97
2023-03-14T05:03:00.662Z,6.15
2023-03-14T05:04:00.694Z,6.15
2023-03-14T05:05:00.657Z,6.15
2023-03-14T05:06:00.614Z,6.15
2023-03-14T05:07:00.801Z,6.15
2023-03-14T05:08:00.649Z,6.09
2023-03-14T05:09:00.748Z,6.09
2023-03-14T05:10:00.656Z,6.09
2023-03-14T05:11:00.617Z,6.09
2023-03-14T05:12:00.647Z,6.09
2023-03-14T05:13:00.632Z,6.07
2023-03-14T05:14:00.627Z,6.07
2023-03-14T05:15:00.836Z,6.07
2023-03-14T05:16:05.245Z,6.07
2023-03-14T05:17:00.609Z,6.07
2023-03-14T05:18:00.634Z,5.97
2023-03-14T05:19:00.614Z,5.97
2023-03-14T05:20:00.730Z,5.97
2023-03-14T05:21:00.635Z,5.97
2023-03-14T05:22:00.622Z,5.97
2023-03-14T05:23:00.608Z,5.85
2023-03-14T05:24:00.631Z,5.85
2023-03-14T05:25:00.639Z,5.85
2023-03-14T05:26:00.646Z,5.85
2023-03-14T05:27:00.724Z,5.85
2023-03-14T05:28:00.857Z,5.92
2023-03-14T05:29:00.656Z,5.92
2023-03-14T05:30:01.103Z,5.92
2023-03-14T05:31:00.681Z,5.92
2023-03-14T05:32:00.647Z,5.92
2023-03-14T05:33:00.873Z,5.98
2023-03-14T05:34:00.608Z,5.98
2023-03-14T05:35:00.626Z,5.98
2023-03-14T05:36:00.701Z,5.98
2023-03-14T05:37:00.623Z,5.98
2023-03-14T05:38:00.669Z,5.86
2023-03-14T05:39:00.627Z,5.86
2023-03-14T05:40:00.616Z,5.86
2023-03-14T05:41:00.645Z,5.86
2023-03-14T05:42:00.630Z,5.86
2023-03-14T05:43:00.641Z,5.96
2023-03-14T05:44:00.628Z,5.96
2023-03-14T05:45:00.674Z,5.96
2023-03-14T05:46:00.697Z,5.96
2023-03-14T05:47:00.650Z,5.96
2023-03-14T05:48:00.745Z,5.88
2023-03-14T05:49:00.803Z,5.88
2023-03-14T05:50:00.635Z,5.88
2023-03-14T05:51:00.613Z,5.88
2023-03-14T05:52:00.801Z,5.88
2023-03-14T05:53:00.634Z,5.86
2023-03-14T05:54:00.675Z,5.86
2023-03-14T05:55:00.662Z,5.86
2023-03-14T05:56:00.664Z,5.86
2023-03-14T05:57:00.624Z,5.86
2023-03-14T05:58:00.612Z,5.87
2023-03-14T05:59:00.703Z,5.87
2023-03-14T06:00:00.652Z,5.87
2023-03-14T06:01:02.504Z,5.87
2023-03-14T06:02:00.647Z,5.87
2023-03-14T06:03:00.715Z,5.79
2023-03-14T06:04:00.743Z,5.79
2023-03-14T06:05:00.659Z,5.79
2023-03-14T06:06:00.640Z,5.79
2023-03-14T06:07:00.640Z,5.79
2023-03-14T06:08:00.769Z,5.88
2023-03-14T06:09:00.641Z,5.88
2023-03-14T06:10:00.709Z,5.88
2023-03-14T06:11:02.726Z,5.88
2023-03-14T06:12:00.761Z,5.88
2023-03-14T06:13:00.654Z,5.76
2023-03-14T06:14:00.646Z,5.76
2023-03-14T06:15:00.969Z,5.76
2023-03-14T06:16:00.613Z,5.76
2023-03-14T06:17:00.612Z,5.76
2023-03-14T06:18:00.654Z,5.71
2023-03-14T06:19:00.615Z,5.71
2023-03-14T06:20:00.684Z,5.71
2023-03-14T06:21:00.668Z,5.71
2023-03-14T06:22:00.631Z,5.71
2023-03-14T06:23:00.641Z,5.72
2023-03-14T06:24:00.667Z,5.72
2023-03-14T06:25:00.626Z,5.72
2023-03-14T06:26:00.646Z,5.72
2023-03-14T06:27:00.664Z,5.72
2023-03-14T06:28:00.698Z,5.84
2023-03-14T06:29:00.653Z,5.84
2023-03-14T06:30:00.777Z,5.84
2023-03-14T06:31:00.721Z,5.84
2023-03-14T06:32:00.657Z,5.84
2023-03-14T06:33:00.835Z,5.61
2023-03-14T06:34:00.660Z,5.61
2023-03-14T06:35:00.648Z,5.61
2023-03-14T06:36:00.792Z,5.61
2023-03-14T06:37:00.634Z,5.61
2023-03-14T06:38:00.617Z,5.52
2023-03-14T06:39:00.648Z,5.52
2023-03-14T06:40:00.638Z,5.52
2023-03-14T06:41:08.434Z,5.52
2023-03-14T06:42:00.683Z,5.52
2023-03-14T06:43:00.625Z,5.57
2023-03-14T06:44:00.718Z,5.57
2023-03-14T06:45:00.707Z,5.57
2023-03-14T06:46:00.714Z,5.57
2023-03-14T06:47:00.675Z,5.57
2023-03-14T06:48:00.635Z,5.55
2023-03-14T06:49:00.614Z,5.55
2023-03-14T06:50:00.615Z,5.55
2023-03-14T06:51:00.801Z,5.55
2023-03-14T06:52:00.685Z,5.55
2023-03-14T06:53:00.793Z,5.71
2023-03-14T06:54:00.648Z,5.71
2023-03-14T06:55:00.829Z,5.71
2023-03-14T06:56:00.622Z,5.71
2023-03-14T06:57:00.611Z,5.71
2023-03-14T06:58:00.661Z,5.75
2023-03-14T06:59:00.631Z,5.75
2023-03-14T07:00:00.711Z,5.75
2023-03-14T07:01:00.702Z,5.75
2023-03-14T07:02:00.645Z,5.75
2023-03-14T07:03:00.931Z,5.69
2023-03-14T07:04:00.967Z,5.69
2023-03-14T07:05:00.612Z,5.69
2023-03-14T07:06:00.626Z,5.69
2023-03-14T07:07:00.656Z,5.69
2023-03-14T07:08:00.644Z,5.54
2023-03-14T07:09:01.768Z,5.54
2023-03-14T07:10:00.643Z,5.54
2023-03-14T07:11:00.667Z,5.54
2023-03-14T07:12:00.664Z,5.54
2023-03-14T07:13:00.892Z,5.48
2023-03-14T07:14:00.621Z,5.48
2023-03-14T07:15:08.704Z,5.48
2023-03-14T07:16:00.739Z,5.48
2023-03-14T07:17:00.624Z,5.48
2023-03-14T07:18:00.627Z,5.20
2023-03-14T07:19:01.521Z,5.20
2023-03-14T07:20:00.770Z,5.20
2023-03-14T07:21:00.615Z,5.20
2023-03-14T07:22:00.618Z,5.20
2023-03-14T07:23:00.654Z,4.97
2023-03-14T07:24:00.663Z,4.97
2023-03-14T07:25:00.724Z,4.97
2023-03-14T07:26:01.197Z,4.97
2023-03-14T07:27:00.637Z,4.97
2023-03-14T07:28:00.618Z,4.79
2023-03-14T07:29:00.635Z,4.79
2023-03-14T07:30:00.651Z,4.79
2023-03-14T07:31:00.786Z,4.79
2023-03-14T07:32:00.635Z,4.79
2023-03-14T07:33:00.768Z,4.72
2023-03-14T07:34:00.692Z,4.72
2023-03-14T07:35:00.736Z,4.72
2023-03-14T07:36:00.818Z,4.72
2023-03-14T07:37:00.662Z,4.72
2023-03-14T07:38:00.610Z,4.72
2023-03-14T07:39:00.625Z,4.72
2023-03-14T07:40:00.800Z,4.72
2023-03-14T07:41:01.666Z,4.72
2023-03-14T07:42:00.870Z,4.72
2023-03-14T07:43:00.651Z,4.80
2023-03-14T07:44:00.730Z,4.80
2023-03-14T07:45:00.656Z,4.80
2023-03-14T07:46:00.690Z,4.80
2023-03-14T07:47:00.625Z,4.80
2023-03-14T07:48:00.633Z,4.82
2023-03-14T07:49:00.665Z,4.82
2023-03-14T07:50:00.702Z,4.82
2023-03-14T07:51:00.627Z,4.82
2023-03-14T07:52:00.627Z,4.82
2023-03-14T07:53:00.638Z,4.96
2023-03-14T07:54:00.718Z,4.96
2023-03-14T07:55:00.646Z,4.96
2023-03-14T07:56:00.681Z,4.96
2023-03-14T07:57:01.570Z,4.96
2023-03-14T07:58:00.617Z,4.89
2023-03-14T07:59:00.651Z,4.89
2023-03-14T08:00:00.740Z,4.89
2023-03-14T08:01:00.632Z,4.89
2023-03-14T08:02:00.657Z,4.89
2023-03-14T08:03:00.744Z,4.87
2023-03-14T08:04:00.694Z,4.87
2023-03-14T08:05:00.621Z,4.87
2023-03-14T08:06:00.680Z,4.87
2023-03-14T08:07:00.626Z,4.87
2023-03-14T08:08:00.637Z,4.94
2023-03-14T08:09:00.648Z,4.94
2023-03-14T08:10:00.649Z,4.94
2023-03-14T08:11:03.410Z,4.94
2023-03-14T08:12:00.635Z,4.94
2023-03-14T08:13:01.040Z,4.73
2023-03-14T08:14:00.804Z,4.73
2023-03-14T08:15:00.739Z,4.73
2023-03-14T08:16:00.765Z,4.73
2023-03-14T08:17:00.647Z,4.73
2023-03-14T08:18:00.664Z,4.66
2023-03-14T08:19:00.664Z,4.66
2023-03-14T08:20:00.662Z,4.66
2023-03-14T08:21:00.818Z,4.66
2023-03-14T08:22:00.667Z,4.66
2023-03-14T08:23:00.842Z,4.58
2023-03-14T08:24:00.632Z,4.58
2023-03-14T08:25:00.626Z,4.58
2023-03-14T08:26:00.627Z,4.58
2023-03-14T08:27:00.646Z,4.58
2023-03-14T08:28:00.638Z,4.63
2023-03-14T08:29:00.834Z,4.63
2023-03-14T08:30:01.404Z,4.63
2023-03-14T08:31:00.847Z,4.63
2023-03-14T08:32:00.696Z,4.63
2023-03-14T08:33:00.794Z,4.80
2023-03-14T08:34:01.137Z,4.80
2023-03-14T08:35:00.679Z,4.80
2023-03-14T08:36:01.201Z,4.80
2023-03-14T08:37:00.863Z,4.80
2023-03-14T08:38:00.626Z,4.55
2023-03-14T08:39:00.750Z,4.55
2023-03-14T08:40:01.005Z,4.55
2023-03-14T08:41:01.714Z,4.55
2023-03-14T08:42:00.627Z,4.55
2023-03-14T08:43:00.675Z,4.46
2023-03-14T08:44:00.684Z,4.46
2023-03-14T08:45:00.735Z,4.46
2023-03-14T08:46:01.512Z,4.46
2023-03-14T08:47:00.702Z,4.46
2023-03-14T08:48:00.640Z,4.29
2023-03-14T08:49:00.807Z,4.29
2023-03-14T08:50:00.666Z,4.29
2023-03-14T08:51:04.359Z,4.29
2023-03-14T08:52:02.801Z,4.29
2023-03-14T08:53:00.652Z,4.30
2023-03-14T08:54:00.653Z,4.30
2023-03-14T08:55:00.641Z,4.30
2023-03-14T08:56:00.692Z,4.30
2023-03-14T08:57:00.643Z,4.30
2023-03-14T08:58:00.633Z,4.31
2023-03-14T08:59:00.622Z,4.31
2023-03-14T09:00:00.648Z,4.31
2023-03-14T09:01:00.671Z,4.31
2023-03-14T09:02:00.626Z,4.31
2023-03-14T09:03:00.675Z,4.58
2023-03-14T09:04:00.726Z,4.58
2023-03-14T09:05:00.660Z,4.58
2023-03-14T09:06:04.646Z,4.58
2023-03-14T09:07:00.622Z,4.58
2023-03-14T09:08:00.875Z,4.63
2023-03-14T09:09:00.647Z,4.63
2023-03-14T09:10:00.696Z,4.63
2023-03-14T09:11:00.642Z,4.63
2023-03-14T09:12:00.630Z,4.63
2023-03-14T09:13:00.617Z,4.87
2023-03-14T09:14:00.632Z,4.87
2023-03-14T09:15:00.675Z,4.87
2023-03-14T09:16:00.851Z,4.87
2023-03-14T09:17:00.666Z,4.87
2023-03-14T09:18:00.659Z,5.08
2023-03-14T09:19:00.814Z,5.08
2023-03-14T09:20:01.182Z,5.08
2023-03-14T09:21:00.749Z,5.08
2023-03-14T09:22:00.641Z,5.08
2023-03-14T09:23:00.628Z,5.38
2023-03-14T09:24:00.624Z,5.38
2023-03-14T09:25:00.625Z,5.38
2023-03-14T09:26:00.742Z,5.38
2023-03-14T09:27:00.675Z,5.38
2023-03-14T09:28:00.661Z,5.42
2023-03-14T09:29:00.651Z,5.42
2023-03-14T09:30:00.745Z,5.42
2023-03-14T09:31:09.100Z,5.42
2023-03-14T09:32:00.803Z,5.42
2023-03-14T09:33:00.726Z,5.56
2023-03-14T09:34:00.666Z,5.56
2023-03-14T09:35:00.697Z,5.56
2023-03-14T09:36:00.794Z,5.56
2023-03-14T09:37:00.670Z,5.56
2023-03-14T09:38:00.708Z,5.77
2023-03-14T09:39:00.623Z,5.77
2023-03-14T09:40:00.969Z,5.77
2023-03-14T09:41:01.554Z,5.77
2023-03-14T09:42:02.504Z,5.77
2023-03-14T09:43:01.099Z,5.74
2023-03-14T09:44:10.566Z,5.74
2023-03-14T09:45:02.191Z,5.74
2023-03-14T09:46:01.707Z,5.74
2023-03-14T09:47:04.863Z,5.74
2023-03-14T09:48:01.978Z,5.94
2023-03-14T09:49:00.864Z,5.94
2023-03-14T09:50:00.904Z,5.94
2023-03-14T09:51:04.720Z,5.94
2023-03-14T09:52:04.199Z,5.94
2023-03-14T09:53:03.259Z,6.00
2023-03-14T09:54:01.225Z,6.00
2023-03-14T09:55:03.202Z,6.00
2023-03-14T09:56:01.308Z,6.00
2023-03-14T09:57:02.775Z,6.00
2023-03-14T09:58:03.668Z,6.10
2023-03-14T09:59:03.085Z,6.10
2023-03-14T10:00:03.707Z,6.10
2023-03-14T10:01:03.616Z,6.10
2023-03-14T10:02:01.913Z,6.10
2023-03-14T10:03:10.531Z,6.18
2023-03-14T10:04:04.149Z,6.18
2023-03-14T10:05:06.810Z,6.18
2023-03-14T10:06:01.232Z,6.18
2023-03-14T10:07:02.083Z,6.18
2023-03-14T10:08:00.621Z,6.23
2023-03-14T10:09:00.774Z,6.23
2023-03-14T10:10:00.808Z,6.23
2023-03-14T10:11:00.645Z,6.23
2023-03-14T10:12:01.213Z,6.23
2023-03-14T10:13:10.535Z,6.24
2023-03-14T10:14:09.149Z,6.24
2023-03-14T10:15:05.018Z,6.24
2023-03-14T10:16:00.641Z,6.24
2023-03-14T10:17:09.567Z,6.39
2023-03-14T10:18:01.686Z,6.39
2023-03-14T10:19:03.201Z,6.39
2023-03-14T10:20:00.652Z,6.39
2023-03-14T10:21:03.048Z,6.39
2023-03-14T10:22:01.195Z,6.39
2023-03-14T10:23:01.915Z,6.41
2023-03-14T10:24:08.588Z,6.41
2023-03-14T10:25:02.237Z,6.41
2023-03-14T10:26:10.606Z,6.41
2023-03-14T10:27:00.608Z,6.41
2023-03-14T10:28:01.650Z,6.60
2023-03-14T10:29:08.970Z,6.60
2023-03-14T10:30:03.777Z,6.60
2023-03-14T10:31:00.968Z,6.60
2023-03-14T10:32:04.748Z,6.60
2023-03-14T10:33:09.902Z,6.75
2023-03-14T10:34:02.668Z,6.75
2023-03-14T10:35:10.523Z,6.75
2023-03-14T10:36:02.918Z,6.75
2023-03-14T10:37:06.265Z,6.75
2023-03-14T10:38:01.492Z,6.65
2023-03-14T10:39:10.541Z,6.65
2023-03-14T10:40:01.751Z,6.65
2023-03-14T10:41:01.776Z,6.65
2023-03-14T10:42:02.897Z,6.65
2023-03-14T10:43:03.523Z,6.93
2023-03-14T10:44:01.889Z,6.93
2023-03-14T10:45:02.911Z,6.93
2023-03-14T10:46:05.205Z,6.93
2023-03-14T10:47:02.686Z,6.93
2023-03-14T10:48:10.543Z,6.99
2023-03-14T10:49:04.354Z,6.99
2023-03-14T10:50:10.662Z,6.99
2023-03-14T10:51:03.599Z,6.99
2023-03-14T10:52:01.404Z,6.99
2023-03-14T10:53:03.354Z,6.96
2023-03-14T10:54:03.470Z,6.96
2023-03-14T10:55:03.345Z,6.96
2023-03-14T10:56:02.523Z,6.96
2023-03-14T10:57:03.575Z,6.96
2023-03-14T10:58:00.642Z,7.03
2023-03-14T10:59:00.838Z,7.03
2023-03-14T11:00:00.710Z,7.03
2023-03-14T11:01:07.819Z,7.03
2023-03-14T11:02:12.429Z,7.04
2023-03-14T11:03:09.958Z,7.04
2023-03-14T11:04:08.153Z,7.04
2023-03-14T11:05:09.123Z,7.04
2023-03-14T11:06:06.113Z,7.04
2023-03-14T11:07:05.757Z,7.04
2023-03-14T11:08:08.678Z,7.14
2023-03-14T11:09:04.796Z,7.14
2023-03-14T11:10:10.528Z,7.14
2023-03-14T11:11:07.611Z,7.14
2023-03-14T11:12:08.403Z,7.25
2023-03-14T11:13:00.606Z,7.25
2023-03-14T11:14:10.534Z,7.25
2023-03-14T11:15:05.511Z,7.25
2023-03-14T11:16:08.139Z,7.25
2023-03-14T11:17:10.547Z,7.16
2023-03-14T11:18:10.528Z,7.16
2023-03-14T11:19:03.895Z,7.16
2023-03-14T11:20:10.519Z,7.16
2023-03-14T11:21:10.560Z,7.16
2023-03-14T11:22:10.541Z,7.23
2023-03-14T11:23:10.546Z,7.23
2023-03-14T11:24:10.763Z,7.23
2023-03-14T11:25:08.088Z,7.23
2023-03-14T11:26:09.471Z,7.23
2023-03-14T11:27:10.539Z,7.42
2023-03-14T11:28:09.140Z,7.42
2023-03-14T11:29:10.660Z,7.42
2023-03-14T11:30:10.534Z,7.42
2023-03-14T11:31:06.801Z,7.42
2023-03-14T11:32:02.844Z,7.42
2023-03-14T11:33:01.683Z,7.50
2023-03-14T11:34:10.252Z,7.50
2023-03-14T11:35:03.047Z,7.50
2023-03-14T11:36:05.091Z,7.50
2023-03-14T11:37:01.644Z,7.50
2023-03-14T11:38:10.546Z,7.34
2023-03-14T11:39:00.655Z,7.34
2023-03-14T11:40:10.525Z,7.34
2023-03-14T11:41:01.331Z,7.34
2023-03-14T11:42:01.400Z,7.34
2023-03-14T11:43:08.056Z,7.53
2023-03-14T11:44:03.508Z,7.53
2023-03-14T11:45:01.166Z,7.53
2023-03-14T11:46:04.561Z,7.53
2023-03-14T11:47:00.804Z,7.53
2023-03-14T11:48:10.539Z,7.64
2023-03-14T11:49:03.576Z,7.64
2023-03-14T11:50:10.532Z,7.64
2023-03-14T11:51:01.967Z,7.64
2023-03-14T11:52:05.528Z,7.64
2023-03-14T11:53:10.544Z,7.66
2023-03-14T11:54:08.043Z,7.66
2023-03-14T11:55:10.524Z,7.66
2023-03-14T11:56:00.780Z,7.66
2023-03-14T11:57:03.379Z,7.66
2023-03-14T11:58:10.012Z,7.88
2023-03-14T11:59:05.127Z,7.88
2023-03-14T12:00:09.737Z,7.88
2023-03-14T12:01:05.631Z,7.88
2023-03-14T12:02:03.861Z,7.88
2023-03-14T12:03:10.560Z,7.71
2023-03-14T12:04:00.655Z,7.71
2023-03-14T12:05:03.874Z,7.71
2023-03-14T12:06:00.609Z,7.71
2023-03-14T12:07:03.232Z,7.71
2023-03-14T12:08:00.617Z,7.82
2023-03-14T12:09:02.485Z,7.82
2023-03-14T12:10:02.211Z,7.82
2023-03-14T12:11:04.355Z,7.82
2023-03-14T12:12:02.395Z,7.82
2023-03-14T12:13:00.712Z,8.04
2023-03-14T12:14:01.128Z,8.04
2023-03-14T12:15:01.724Z,8.04
2023-03-14T12:16:04.242Z,8.04
2023-03-14T12:17:03.888Z,8.04
2023-03-14T12:18:00.668Z,8.15
2023-03-14T12:19:10.529Z,8.15
2023-03-14T12:20:04.020Z,8.15
2023-03-14T12:21:02.324Z,8.15
2023-03-14T12:22:07.699Z,8.03
2023-03-14T12:23:03.312Z,8.03
2023-03-14T12:24:00.648Z,8.03
2023-03-14T12:25:03.731Z,8.03
2023-03-14T12:26:10.550Z,8.03
2023-03-14T12:27:02.116Z,8.03
2023-03-14T12:28:05.172Z,8.06
2023-03-14T12:29:00.636Z,8.06
2023-03-14T12:30:03.233Z,8.06
2023-03-14T12:31:10.532Z,8.06
2023-03-14T12:32:00.656Z,8.06
2023-03-14T12:33:10.538Z,8.07
2023-03-14T12:34:03.058Z,8.07
2023-03-14T12:35:07.764Z,8.07
2023-03-14T12:36:01.905Z,8.07
2023-03-14T12:37:10.541Z,8.18
2023-03-14T12:38:03.049Z,8.18
2023-03-14T12:39:07.274Z,8.18
2023-03-14T12:40:10.541Z,8.18
2023-03-14T12:41:01.653Z,8.18
2023-03-14T12:42:08.478Z,8.37
2023-03-14T12:43:01.740Z,8.37
2023-03-14T12:44:10.522Z,8.37
2023-03-14T12:45:10.541Z,8.37
2023-03-14T12:46:10.620Z,8.37
2023-03-14T12:47:10.527Z,8.33
2023-03-14T12:48:00.613Z,8.33
2023-03-14T12:49:00.623Z,8.33
2023-03-14T12:50:07.199Z,8.33
2023-03-14T12:51:03.392Z,8.33
2023-03-14T12:52:01.593Z,8.33
2023-03-14T12:53:10.545Z,8.41
2023-03-14T12:54:07.138Z,8.41
2023-03-14T12:55:10.529Z,8.41
2023-03-14T12:56:00.607Z,8.41
2023-03-14T12:57:10.531Z,8.55
2023-03-14T12:58:08.044Z,8.55
2023-03-14T12:59:03.897Z,8.55
2023-03-14T13:00:01.721Z,8.55
2023-03-14T13:01:02.144Z,8.55
2023-03-14T13:02:00.619Z,8.55
2023-03-14T13:03:10.544Z,8.88
2023-03-14T13:04:07.154Z,8.88
2023-03-14T13:05:11.944Z,8.88
2023-03-14T13:06:01.756Z,8.88
2023-03-14T13:07:01.719Z,8.88
2023-03-14T13:08:00.613Z,9.11
2023-03-14T13:09:10.730Z,9.11
2023-03-14T13:11:01.675Z,9.11
2023-03-14T13:12:03.109Z,9.11
2023-03-14T13:13:10.529Z,9.21
2023-03-14T13:14:00.666Z,9.21
2023-03-14T13:15:01.398Z,9.21
2023-03-14T13:16:00.951Z,9.21
2023-03-14T13:17:10.363Z,9.21
2023-03-14T13:18:10.529Z,8.87
2023-03-14T13:19:02.851Z,8.87